Time;durP1;ratioP1;P1;durP2;ratioP2;P2;SDS_P1;SDS_P2;PMS_P1;PMS_P2;Temp;Humidity;BMP_temperature;BMP_pressure;BME280_temperature;BME280_humidity;BME280_pressure;Samples;Min_cycle;Max_cycle;Signal;HPM_P1;HPM_P2
2023/03/19 00:00:44;;;;;;;;;;;;;;;4.87;64.44;101256.95;107815;1259;66876;-84
2023/03/19 00:03:32;;;;;;;;;;;;;;;4.87;64.47;101258.35;107869;1257;74787;-83
2023/03/19 00:05:59;;;;;;;;;;;;;;;4.87;64.58;101258.55;107683;1256;61097;-84
2023/03/19 00:08:27;;;;;;;;;;;;;;;4.88;64.53;101261.52;107707;1256;123930;-81
2023/03/19 00:11:05;;;;;;;;;;;;;;;4.85;64.47;101259.98;107526;1261;74355;-83
2023/03/19 00:13:32;;;;;;;;;;;;;;;4.83;64.63;101261.09;107628;1257;124011;-83
2023/03/19 00:16:00;;;;;;;;;;;;;;;4.81;64.62;101258.71;107890;1257;72649;-81
2023/03/19 00:18:39;;;;;;;;;;;;;;;4.79;64.65;101255.27;107763;1255;59842;-82
2023/03/19 00:21:06;;;;;;;;;;;;;;;4.77;64.79;101255.36;107537;1256;123869;-80
2023/03/19 00:23:34;;;;;;;;;;;;;;;4.76;64.87;101261.73;108215;1257;74399;-80
2023/03/19 00:26:01;;;;;;;;;;;;;;;4.73;64.95;101257.23;107845;1256;124420;-81
2023/03/19 00:28:29;;;;;;;;;;;;;;;4.71;64.94;101257.98;107562;1257;73714;-81
2023/03/19 00:30:56;;;;;;;;;;;;;;;4.68;64.95;101253.95;108211;1256;60037;-80
2023/03/19 00:33:24;;;;;;;;;;;;;;;4.64;64.92;101257.39;107653;1260;123872;-82
2023/03/19 00:35:59;;;;;;;;;;;;;;;4.63;65.02;101259.92;108208;1258;74676;-81
2023/03/19 00:38:27;;;;;;;;;;;;;;;4.61;64.97;101258.27;107731;1256;123709;-81
2023/03/19 00:40:54;;;;;;;;;;;;;;;4.58;65.08;101254.06;107423;1256;71374;-81
2023/03/19 00:43:23;;;;;;;;;;;;;;;4.54;65.21;101252.64;107798;1260;124147;-81
2023/03/19 00:45:50;;;;;;;;;;;;;;;4.51;65.29;101252.63;108201;1256;61525;-83
2023/03/19 00:48:17;;;;;;;;;;;;;;;4.49;65.33;101253.05;107744;1257;74937;-81
2023/03/19 00:50:44;;;;;;;;;;;;;;;4.46;65.42;101254.81;108715;1256;124036;-81
2023/03/19 00:53:11;;;;;;;;;;;;;;;4.44;65.45;101250.16;107735;1254;71355;-81
2023/03/19 00:55:38;;;;;;;;;;;;;;;4.43;65.47;101252.17;107763;1254;124540;-81
2023/03/19 00:58:06;;;;;;;;;;;;;;;4.42;65.58;101252.99;107825;1254;59447;-83
2023/03/19 01:00:33;;;;;;;;;;;;;;;4.40;65.57;101256.38;108136;1254;74698;-84
2023/03/19 01:03:02;;;;;;;;;;;;;;;4.39;65.59;101260.31;108137;1254;124271;-81
2023/03/19 01:05:29;;;;;;;;;;;;;;;4.38;65.68;101257.43;107488;1254;73610;-83
2023/03/19 01:07:59;;;;;;;;;;;;;;;4.36;65.67;101256.80;107356;1256;124274;-83
2023/03/19 01:10:27;;;;;;;;;;;;;;;4.34;65.93;101266.94;107731;1254;59946;-84
2023/03/19 01:12:54;;;;;;;;;;;;;;;4.31;65.92;101266.60;108063;1254;73156;-80
2023/03/19 01:15:21;;;;;;;;;;;;;;;4.29;66.09;101270.15;107684;1254;124236;-80
2023/03/19 01:17:55;;;;;;;;;;;;;;;4.28;66.19;101273.39;107506;1254;72449;-80
2023/03/19 01:20:23;;;;;;;;;;;;;;;4.27;66.11;101271.44;107409;1254;123733;-80
2023/03/19 01:22:50;;;;;;;;;;;;;;;4.27;66.07;101268.29;107554;1254;60181;-83
2023/03/19 01:25:17;;;;;;;;;;;;;;;4.27;66.45;101267.23;107335;1254;123888;-83
2023/03/19 01:27:51;;;;;;;;;;;;;;;4.26;66.40;101269.66;107440;1254;65578;-84
2023/03/19 01:30:19;;;;;;;;;;;;;;;4.26;66.51;101275.38;107570;1257;72682;-83
2023/03/19 01:32:46;;;;;;;;;;;;;;;4.23;66.48;101273.11;108797;1254;124963;-81
2023/03/19 01:35:13;;;;;;;;;;;;;;;4.21;66.63;101274.58;109020;1254;58988;-81
2023/03/19 01:37:40;;;;;;;;;;;;;;;4.20;66.64;101268.94;107586;1254;124644;-80
2023/03/19 01:40:11;;;;;;;;;;;;;;;4.22;66.67;101272.36;107807;1254;68019;-81
2023/03/19 01:42:54;;;;;;;;;;;;;;;4.25;66.80;101270.79;107891;1260;71293;-81
2023/03/19 01:45:41;;;;;;;;;;;;;;;4.26;66.65;101270.16;107645;1254;124452;-81
2023/03/19 01:48:15;;;;;;;;;;;;;;;4.28;66.72;101280.16;107846;1254;61299;-81
2023/03/19 01:50:42;;;;;;;;;;;;;;;4.28;66.74;101280.53;107562;1254;125335;-83
2023/03/19 01:53:10;;;;;;;;;;;;;;;4.28;66.75;101277.58;107684;1254;66808;-82
2023/03/19 01:55:37;;;;;;;;;;;;;;;4.26;66.73;101277.44;107444;1258;125283;-82
2023/03/19 01:58:05;;;;;;;;;;;;;;;4.26;66.70;101275.40;107711;1254;61948;-82
2023/03/19 02:00:33;;;;;;;;;;;;;;;4.28;66.76;101276.69;107559;1256;59788;-83
2023/03/19 02:03:01;;;;;;;;;;;;;;;4.29;66.87;101278.85;107882;1254;125057;-82
2023/03/19 02:05:28;;;;;;;;;;;;;;;4.31;67.01;101279.98;107923;1254;65608;-82
2023/03/19 02:07:58;;;;;;;;;;;;;;;4.32;66.87;101283.48;107833;1256;124431;-83
2023/03/19 02:10:26;;;;;;;;;;;;;;;4.31;66.82;101282.25;108018;1254;61228;-82
2023/03/19 02:12:53;;;;;;;;;;;;;;;4.31;66.92;101284.34;107864;1254;61280;-82
2023/03/19 02:15:21;;;;;;;;;;;;;;;4.28;66.92;101283.65;108022;1254;124894;-82
2023/03/19 02:17:48;;;;;;;;;;;;;;;4.25;66.86;101282.45;108044;1254;65506;-83
2023/03/19 02:20:16;;;;;;;;;;;;;;;4.23;66.94;101285.24;107819;1254;124983;-83
2023/03/19 02:23:03;;;;;;;;;;;;;;;4.23;67.01;101285.95;108000;1254;61088;-83
2023/03/19 02:25:40;;;;;;;;;;;;;;;4.21;67.02;101284.13;108187;1254;124504;-82
2023/03/19 02:28:08;;;;;;;;;;;;;;;4.22;67.16;101280.70;107942;1254;75112;-81
2023/03/19 02:30:35;;;;;;;;;;;;;;;4.22;67.26;101278.95;108031;1254;66597;-83
2023/03/19 02:33:03;;;;;;;;;;;;;;;4.22;67.12;101278.80;107788;1258;124934;-83
2023/03/19 02:35:32;;;;;;;;;;;;;;;4.22;67.10;101280.37;107841;1254;60439;-83
2023/03/19 02:37:59;;;;;;;;;;;;;;;4.21;67.07;101276.77;107850;1254;125054;-82
2023/03/19 02:40:33;;;;;;;;;;;;;;;4.19;67.04;101273.38;107867;1260;73276;-83
2023/03/19 02:43:00;;;;;;;;;;;;;;;4.15;67.11;101274.35;107982;1254;67833;-83
2023/03/19 02:45:28;;;;;;;;;;;;;;;4.09;67.09;101279.95;108021;1254;125041;-83
2023/03/19 02:47:55;;;;;;;;;;;;;;;4.04;67.09;101279.27;107750;1254;60391;-81
2023/03/19 02:50:26;;;;;;;;;;;;;;;4.00;67.28;101281.10;107596;1254;124669;-82
2023/03/19 02:52:53;;;;;;;;;;;;;;;3.96;67.28;101278.98;107546;1259;75175;-82
2023/03/19 02:55:21;;;;;;;;;;;;;;;3.94;67.20;101283.33;107649;1254;125295;-82
2023/03/19 02:57:48;;;;;;;;;;;;;;;3.89;67.25;101279.42;107492;1254;72725;-82
2023/03/19 03:00:17;;;;;;;;;;;;;;;3.85;67.43;101282.82;107446;1260;61376;-82
2023/03/19 03:02:44;;;;;;;;;;;;;;;3.81;67.41;101279.61;107828;1254;123950;-82
2023/03/19 03:05:13;;;;;;;;;;;;;;;3.76;67.39;101276.37;108028;1254;74694;-82
2023/03/19 03:07:42;;;;;;;;;;;;;;;3.68;67.54;101275.57;107842;1254;124216;-82
2023/03/19 03:10:10;;;;;;;;;;;;;;;3.65;67.62;101275.87;107793;1254;72725;-82
2023/03/19 03:12:38;;;;;;;;;;;;;;;3.60;67.71;101277.34;107600;1260;59627;-82
2023/03/19 03:15:05;;;;;;;;;;;;;;;3.57;67.80;101277.64;107420;1256;124286;-82
2023/03/19 03:17:32;;;;;;;;;;;;;;;3.53;67.79;101278.46;108831;1254;74694;-82
2023/03/19 03:20:00;;;;;;;;;;;;;;;3.48;67.79;101277.64;108075;1254;124554;-82
2023/03/19 03:22:27;;;;;;;;;;;;;;;3.42;67.91;101279.15;108155;1260;70983;-83
2023/03/19 03:24:54;;;;;;;;;;;;;;;3.38;68.05;101283.08;107975;1254;59355;-83
2023/03/19 03:27:21;;;;;;;;;;;;;;;3.37;68.10;101283.16;107876;1254;124742;-83
2023/03/19 03:29:55;;;;;;;;;;;;;;;3.36;68.11;101283.41;108234;1254;74534;-85
2023/03/19 03:32:22;;;;;;;;;;;;;;;3.32;68.06;101278.71;107908;1254;124476;-83
2023/03/19 03:34:49;;;;;;;;;;;;;;;3.29;68.23;101283.58;107941;1254;72578;-83
2023/03/19 03:37:17;;;;;;;;;;;;;;;3.28;68.45;101285.41;108098;1259;124413;-82
2023/03/19 03:39:44;;;;;;;;;;;;;;;3.28;68.39;101286.25;107927;1254;60675;-82
2023/03/19 03:42:11;;;;;;;;;;;;;;;3.27;68.51;101282.22;108653;1254;74677;-83
2023/03/19 03:44:38;;;;;;;;;;;;;;;3.28;68.48;101284.67;109019;1254;123780;-83
2023/03/19 03:47:05;;;;;;;;;;;;;;;3.26;68.46;101284.39;108377;1254;71116;-83
2023/03/19 03:49:32;;;;;;;;;;;;;;;3.23;68.57;101285.63;108089;1254;124304;-83
2023/03/19 03:51:59;;;;;;;;;;;;;;;3.22;68.55;101286.24;108261;1254;60088;-83
2023/03/19 03:54:29;;;;;;;;;;;;;;;3.20;68.79;101291.66;108302;1254;75215;-83
2023/03/19 03:56:57;;;;;;;;;;;;;;;3.17;68.75;101294.39;107618;1254;123886;-90
2023/03/19 03:59:24;;;;;;;;;;;;;;;3.10;68.67;101296.59;107593;1254;72862;-89
2023/03/19 04:01:53;;;;;;;;;;;;;;;3.04;68.54;101296.73;107629;1257;123747;-89
2023/03/19 04:04:20;;;;;;;;;;;;;;;3.00;68.61;101296.83;107560;1254;60468;-89
2023/03/19 04:06:47;;;;;;;;;;;;;;;2.98;68.65;101298.55;107516;1254;74478;-85
2023/03/19 04:09:27;;;;;;;;;;;;;;;2.93;68.59;101294.77;107474;1254;124484;-89
2023/03/19 04:11:55;;;;;;;;;;;;;;;2.89;69.03;101296.84;107600;1256;70280;-84
2023/03/19 04:14:25;;;;;;;;;;;;;;;2.86;68.81;101295.58;107593;1254;123928;-82
2023/03/19 04:16:52;;;;;;;;;;;;;;;2.84;69.04;101299.96;108181;1254;61272;-83
2023/03/19 04:19:19;;;;;;;;;;;;;;;2.83;69.15;101295.17;107990;1254;124203;-84
2023/03/19 04:21:46;;;;;;;;;;;;;;;2.80;69.01;101297.27;108309;1254;65871;-80
2023/03/19 04:24:14;;;;;;;;;;;;;;;2.78;69.27;101300.77;107750;1259;72695;-79
2023/03/19 04:26:41;;;;;;;;;;;;;;;2.74;69.17;101297.55;107799;1254;125300;-83
2023/03/19 04:29:09;;;;;;;;;;;;;;;2.68;69.31;101296.84;108207;1254;60144;-81
2023/03/19 04:31:37;;;;;;;;;;;;;;;2.62;69.38;101293.45;108379;1254;124186;-83
2023/03/19 04:34:04;;;;;;;;;;;;;;;2.60;69.46;101298.02;107879;1254;66827;-84
2023/03/19 04:36:32;;;;;;;;;;;;;;;2.59;69.57;101304.70;107726;1254;71423;-83
2023/03/19 04:38:59;;;;;;;;;;;;;;;2.58;69.71;101311.41;107671;1254;123954;-84
2023/03/19 04:41:27;;;;;;;;;;;;;;;2.57;69.54;101312.52;107638;1254;61176;-84
2023/03/19 04:43:54;;;;;;;;;;;;;;;2.55;69.62;101310.89;107874;1254;124614;-80
2023/03/19 04:46:21;;;;;;;;;;;;;;;2.56;69.84;101315.25;108147;1254;67825;-80
2023/03/19 04:48:49;;;;;;;;;;;;;;;2.57;70.05;101311.15;108278;1254;73022;-84
2023/03/19 04:51:16;;;;;;;;;;;;;;;2.61;70.16;101306.73;107910;1254;124509;-85
2023/03/19 04:53:43;;;;;;;;;;;;;;;2.65;70.30;101304.07;107737;1254;61733;-84
2023/03/19 04:56:10;;;;;;;;;;;;;;;2.70;70.14;101300.23;107653;1254;123932;-89
2023/03/19 04:58:51;;;;;;;;;;;;;;;2.74;70.29;101298.63;107653;1254;65921;-90
2023/03/19 05:01:36;;;;;;;;;;;;;;;2.79;70.32;101297.52;107475;1254;123793;-90
2023/03/19 05:04:03;;;;;;;;;;;;;;;2.87;70.25;101298.05;107760;1257;61193;-84
2023/03/19 05:06:31;;;;;;;;;;;;;;;2.92;70.35;101297.86;108058;1254;60812;-84
2023/03/19 05:08:59;;;;;;;;;;;;;;;2.99;70.31;101295.14;107982;1254;124238;-83
2023/03/19 05:11:26;;;;;;;;;;;;;;;3.05;70.40;101292.75;107641;1254;66114;-80
2023/03/19 05:13:53;;;;;;;;;;;;;;;3.12;70.37;101294.09;107832;1254;123771;-83
2023/03/19 05:16:20;;;;;;;;;;;;;;;3.18;70.28;101294.66;108035;1254;59643;-80
2023/03/19 05:18:47;;;;;;;;;;;;;;;3.25;70.32;101290.26;108053;1254;60079;-80
2023/03/19 05:21:14;;;;;;;;;;;;;;;3.33;70.06;101292.98;107867;1254;125122;-79
2023/03/19 05:23:41;;;;;;;;;;;;;;;3.44;70.22;101293.38;108681;1254;67088;-79
2023/03/19 05:26:08;;;;;;;;;;;;;;;3.55;70.07;101292.44;108780;1254;124605;-80
2023/03/19 05:28:35;;;;;;;;;;;;;;;3.65;70.27;101294.44;109144;1254;59158;-84
2023/03/19 05:31:02;;;;;;;;;;;;;;;3.76;70.11;101293.39;108963;1254;60127;-84
2023/03/19 05:33:31;;;;;;;;;;;;;;;3.89;70.11;101291.41;108663;1254;74617;-84
2023/03/19 05:35:58;;;;;;;;;;;;;;;4.03;69.80;101286.17;107642;1256;66813;-84
2023/03/19 05:38:25;;;;;;;;;;;;;;;4.18;69.80;101289.63;107489;1254;124484;-84
2023/03/19 05:40:52;;;;;;;;;;;;;;;4.30;69.60;101292.48;107808;1254;60171;-84
2023/03/19 05:43:19;;;;;;;;;;;;;;;4.43;69.54;101295.13;108140;1254;125230;-84
2023/03/19 05:45:50;;;;;;;;;;;;;;;4.56;69.36;101296.38;108032;1256;74381;-81
2023/03/19 05:48:17;;;;;;;;;;;;;;;4.68;69.23;101299.88;107623;1254;66923;-83
2023/03/19 05:50:46;;;;;;;;;;;;;;;4.81;68.95;101305.29;107360;1254;124666;-84
2023/03/19 05:53:14;;;;;;;;;;;;;;;4.95;69.05;101304.87;107471;1255;61331;-82
2023/03/19 05:55:41;;;;;;;;;;;;;;;5.13;68.87;101301.16;107352;1256;125003;-82
2023/03/19 05:58:08;;;;;;;;;;;;;;;5.27;68.82;101301.77;107688;1255;73029;-84
2023/03/19 06:00:35;;;;;;;;;;;;;;;5.47;68.77;101299.21;107773;1256;65234;-84
2023/03/19 06:03:02;;;;;;;;;;;;;;;5.70;68.73;101301.69;107568;1260;124695;-81
2023/03/19 06:05:29;;;;;;;;;;;;;;;5.94;68.46;101304.02;107609;1257;61264;-79
2023/03/19 06:07:57;;;;;;;;;;;;;;;6.13;68.33;101305.86;107782;1256;125373;-81
2023/03/19 06:10:26;;;;;;;;;;;;;;;6.31;68.12;101309.61;108997;1256;75285;-81
2023/03/19 06:12:53;;;;;;;;;;;;;;;6.50;67.98;101313.69;108066;1256;67113;-81
2023/03/19 06:15:20;;;;;;;;;;;;;;;6.65;67.83;101311.64;107853;1255;125327;-81
2023/03/19 06:17:47;;;;;;;;;;;;;;;6.79;67.54;101313.20;107555;1256;60771;-83
2023/03/19 06:20:14;;;;;;;;;;;;;;;6.84;67.13;101309.60;107521;1256;124033;-82
2023/03/19 06:22:42;;;;;;;;;;;;;;;6.88;66.93;101310.84;107512;1255;75652;-83
2023/03/19 06:25:10;;;;;;;;;;;;;;;6.95;66.95;101312.77;107559;1259;145903;-82
2023/03/19 06:27:36;;;;;;;;;;;;;;;7.04;66.84;101313.36;107792;1256;73611;-80
2023/03/19 06:30:04;;;;;;;;;;;;;;;7.10;66.68;101314.35;107809;1256;59568;-80
2023/03/19 06:32:31;;;;;;;;;;;;;;;7.16;66.57;101315.84;107571;1255;123985;-81
2023/03/19 06:34:58;;;;;;;;;;;;;;;7.21;66.34;101319.08;107570;1260;74267;-81
2023/03/19 06:37:25;;;;;;;;;;;;;;;7.29;66.29;101321.20;107528;1256;124084;-85
2023/03/19 06:39:53;;;;;;;;;;;;;;;7.41;66.28;101322.08;107653;1256;73016;-82
2023/03/19 06:42:25;;;;;;;;;;;;;;;7.51;65.97;101320.10;107749;1256;61029;-82
2023/03/19 06:45:06;;;;;;;;;;;;;;;7.57;65.75;101323.02;108336;1256;124216;-92
2023/03/19 06:47:35;;;;;;;;;;;;;;;7.63;65.71;101323.09;107675;1259;75566;-86
2023/03/19 06:50:03;;;;;;;;;;;;;;;7.72;65.70;101328.59;107722;1256;123745;-84
2023/03/19 06:52:30;;;;;;;;;;;;;;;7.81;65.61;101329.33;107577;1256;72352;-84
2023/03/19 06:54:58;;;;;;;;;;;;;;;7.85;65.43;101328.85;107643;1256;61361;-88
2023/03/19 06:57:25;;;;;;;;;;;;;;;7.88;65.19;101326.15;107797;1257;123565;-84
2023/03/19 07:00:01;;;;;;;;;;;;;;;7.91;65.02;101328.21;107885;1254;75787;-83
2023/03/19 07:02:35;;;;;;;;;;;;;;;7.92;64.75;101333.71;107869;1256;65909;-87
2023/03/19 07:05:04;;;;;;;;;;;;;;;7.88;64.69;101331.42;107638;1254;72174;-88
2023/03/19 07:08:10;;;;;;;;;;;;;;;7.89;64.87;101333.75;107760;1254;59954;-87
2023/03/19 07:10:38;;;;;;;;;;;;;;;7.94;64.86;101335.55;107682;1259;61376;-86
2023/03/19 07:13:05;;;;;;;;;;;;;;;7.96;64.72;101339.67;107736;1254;76544;-85
2023/03/19 07:15:35;;;;;;;;;;;;;;;7.95;64.68;101334.17;107695;1254;65668;-83
2023/03/19 07:18:02;;;;;;;;;;;;;;;7.94;64.65;101334.33;107811;1254;71426;-82
2023/03/19 07:20:30;;;;;;;;;;;;;;;7.93;64.74;101335.31;107737;1254;123805;-83
2023/03/19 07:22:57;;;;;;;;;;;;;;;7.95;64.90;101336.45;107492;1253;61222;-90
2023/03/19 07:25:24;;;;;;;;;;;;;;;7.99;64.93;101337.49;107593;1254;123993;-85
2023/03/19 07:27:51;;;;;;;;;;;;;;;8.05;64.92;101336.54;107768;1254;67661;-86
2023/03/19 07:30:18;;;;;;;;;;;;;;;8.08;64.91;101334.06;108601;1254;72732;-89
2023/03/19 07:32:45;;;;;;;;;;;;;;;8.16;64.98;101341.73;107706;1253;124391;-85
2023/03/19 07:35:18;;;;;;;;;;;;;;;8.23;64.93;101342.08;108214;1254;61245;-90
2023/03/19 07:37:58;;;;;;;;;;;;;;;8.29;64.86;101342.51;107933;1253;74373;-88
2023/03/19 07:40:25;;;;;;;;;;;;;;;8.36;64.84;101344.02;107707;1259;67060;-82
2023/03/19 07:43:05;;;;;;;;;;;;;;;8.43;64.77;101349.09;108043;1254;71381;-89
2023/03/19 07:45:36;;;;;;;;;;;;;;;8.48;64.58;101351.73;107702;1255;124316;-88
2023/03/19 07:48:13;;;;;;;;;;;;;;;8.53;64.64;101352.69;107402;1254;61119;-87
2023/03/19 07:50:46;;;;;;;;;;;;;;;8.62;64.57;101350.24;107881;1254;124285;-87
2023/03/19 07:53:13;;;;;;;;;;;;;;;8.67;64.48;101345.55;108123;1258;67023;-82
2023/03/19 07:55:40;;;;;;;;;;;;;;;8.73;64.28;101350.00;107999;1257;124323;-85
2023/03/19 07:58:07;;;;;;;;;;;;;;;8.78;64.31;101353.70;107529;1256;61235;-86
2023/03/19 08:00:34;;;;;;;;;;;;;;;8.83;64.22;101357.44;107556;1255;60749;-82
2023/03/19 08:03:01;;;;;;;;;;;;;;;8.87;64.13;101357.23;107645;1255;124588;-82
2023/03/19 08:05:28;;;;;;;;;;;;;;;8.90;64.15;101352.30;107700;1259;67155;-90
2023/03/19 08:07:56;;;;;;;;;;;;;;;8.96;64.10;101349.89;107763;1256;124678;-83
2023/03/19 08:10:22;;;;;;;;;;;;;;;9.00;64.04;101348.67;107613;1255;61340;-82
2023/03/19 08:12:51;;;;;;;;;;;;;;;9.03;64.07;101346.18;107572;1256;59694;-83
2023/03/19 08:15:18;;;;;;;;;;;;;;;9.12;64.12;101347.75;107464;1256;124138;-85
2023/03/19 08:17:48;;;;;;;;;;;;;;;9.17;63.95;101344.45;107410;1261;67601;-92
2023/03/19 08:20:34;;;;;;;;;;;;;;;9.25;63.93;101343.73;107383;1256;124106;-88
2023/03/19 08:23:37;;;;;;;;;;;;;;;9.32;63.76;101340.34;107224;1256;62265;-95
2023/03/19 08:26:23;;;;;;;;;;;;;;;9.43;63.80;101339.53;106922;1262;123977;-92
2023/03/19 08:28:59;;;;;;;;;;;;;;;9.52;63.71;101339.54;107009;1264;73496;-88
2023/03/19 08:31:26;;;;;;;;;;;;;;;9.66;63.84;101335.83;106719;1264;66192;-85
2023/03/19 08:33:55;;;;;;;;;;;;;;;9.80;63.70;101328.66;106635;1264;124598;-87
2023/03/19 08:36:22;;;;;;;;;;;;;;;9.94;63.71;101323.94;106822;1264;60291;-85
2023/03/19 08:38:53;;;;;;;;;;;;;;;10.09;63.62;101323.95;106695;1264;124312;-83
2023/03/19 08:41:20;;;;;;;;;;;;;;;10.27;63.50;101324.25;106800;1263;74384;-85
2023/03/19 08:43:47;;;;;;;;;;;;;;;10.47;63.45;101320.23;106667;1262;124650;-94
2023/03/19 08:46:15;;;;;;;;;;;;;;;10.64;63.15;101321.16;106802;1265;72499;-92
2023/03/19 08:48:50;;;;;;;;;;;;;;;10.83;63.09;101324.93;107072;1262;61455;-92
2023/03/19 08:51:20;;;;;;;;;;;;;;;11.05;63.07;101320.91;107017;1264;124353;-92
2023/03/19 08:53:52;;;;;;;;;;;;;;;11.29;62.93;101319.58;107205;1262;75821;-89
2023/03/19 08:56:26;;;;;;;;;;;;;;;11.50;62.73;101320.39;106906;1262;124718;-85
2023/03/19 08:58:54;;;;;;;;;;;;;;;11.71;62.52;101322.06;107040;1262;71432;-88
2023/03/19 09:01:25;;;;;;;;;;;;;;;11.88;62.30;101317.48;107050;1254;61124;-87
2023/03/19 09:04:05;;;;;;;;;;;;;;;12.05;62.12;101318.51;107109;1254;124107;-86
2023/03/19 09:06:32;;;;;;;;;;;;;;;12.24;61.91;101314.43;107482;1259;73829;-86
2023/03/19 09:09:26;;;;;;;;;;;;;;;12.38;61.71;101311.14;107474;1256;124056;-85
2023/03/19 09:11:59;;;;;;;;;;;;;;;12.51;61.45;101312.90;107561;1258;71782;-87
2023/03/19 09:14:49;;;;;;;;;;;;;;;12.65;61.23;101314.31;107247;1257;124123;-89
2023/03/19 09:17:25;;;;;;;;;;;;;;;12.79;60.91;101316.77;107364;1254;62169;-87
2023/03/19 09:19:54;;;;;;;;;;;;;;;12.91;60.96;101317.59;107279;1256;125856;-87
2023/03/19 09:22:21;;;;;;;;;;;;;;;13.05;60.91;101315.98;107420;1257;67293;-87
2023/03/19 09:24:56;;;;;;;;;;;;;;;13.19;60.71;101312.60;107431;1257;71701;-87
2023/03/19 09:27:29;;;;;;;;;;;;;;;13.29;60.47;101314.07;107295;1256;124305;-88
2023/03/19 09:29:57;;;;;;;;;;;;;;;13.38;60.36;101312.56;107669;1259;62121;-82
2023/03/19 09:32:24;;;;;;;;;;;;;;;13.48;60.17;101313.46;107445;1257;124534;-82
2023/03/19 09:35:00;;;;;;;;;;;;;;;13.56;60.11;101311.88;107564;1255;66784;-95
2023/03/19 09:37:28;;;;;;;;;;;;;;;13.64;59.80;101312.23;107650;1257;72796;-80
2023/03/19 09:39:56;;;;;;;;;;;;;;;13.72;59.52;101306.77;107371;1254;257988;-79
2023/03/19 09:42:43;;;;;;;;;;;;;;;13.78;59.25;101304.07;107895;1254;60831;-80
2023/03/19 09:45:16;;;;;;;;;;;;;;;13.90;58.96;101308.19;107452;1255;124699;-80
2023/03/19 09:47:47;;;;;;;;;;;;;;;13.98;58.79;101308.01;107471;1254;67101;-81
2023/03/19 09:50:18;;;;;;;;;;;;;;;14.07;58.85;101304.12;107355;1255;124219;-81
2023/03/19 09:52:46;;;;;;;;;;;;;;;14.13;58.61;101302.99;108864;1256;59321;-81
2023/03/19 09:55:23;;;;;;;;;;;;;;;14.21;58.62;101298.92;109119;1257;60893;-81
2023/03/19 09:57:50;;;;;;;;;;;;;;;14.34;58.65;101300.20;107730;1255;124404;-81
2023/03/19 10:00:32;;;;;;;;;;;;;;;14.48;58.58;101298.52;107851;1254;67038;-81
2023/03/19 10:03:17;;;;;;;;;;;;;;;14.59;58.35;101298.56;108948;1254;124199;-81
2023/03/19 10:05:51;;;;;;;;;;;;;;;14.68;58.08;101298.88;107735;1259;60430;-81
2023/03/19 10:08:19;;;;;;;;;;;;;;;14.71;57.90;101296.13;107788;1257;124264;-81
2023/03/19 10:11:12;;;;;;;;;;;;;;;14.78;57.73;101298.89;107740;1259;74543;-81
2023/03/19 10:13:45;;;;;;;;;;;;;;;14.91;57.20;101300.68;107611;1255;124510;-80
2023/03/19 10:16:20;;;;;;;;;;;;;;;15.02;56.82;101298.58;107973;1257;72738;-81
2023/03/19 10:18:48;;;;;;;;;;;;;;;15.17;56.64;101301.80;107689;1257;60709;-83
2023/03/19 10:21:24;;;;;;;;;;;;;;;15.32;56.46;101295.30;107347;1256;124260;-89
2023/03/19 10:24:23;;;;;;;;;;;;;;;15.46;56.00;101297.08;107459;1255;75007;-87
2023/03/19 10:29:48;;;;;;;;;;;;;;;15.59;55.30;101294.59;107427;1255;72724;-88
2023/03/19 10:32:33;;;;;;;;;;;;;;;15.63;55.22;101295.73;107328;1255;124531;-90
2023/03/19 10:35:01;;;;;;;;;;;;;;;15.69;54.96;101288.54;107719;1255;60163;-84
2023/03/19 10:37:29;;;;;;;;;;;;;;;15.70;54.70;101289.61;107669;1254;74438;-85
2023/03/19 10:39:57;;;;;;;;;;;;;;;15.68;54.53;101290.48;107332;1254;124092;-86
2023/03/19 10:42:44;;;;;;;;;;;;;;;15.67;54.61;101287.63;107673;1256;71482;-85
2023/03/19 10:45:11;;;;;;;;;;;;;;;15.71;54.46;101286.45;107423;1254;124306;-84
2023/03/19 10:47:39;;;;;;;;;;;;;;;15.74;54.33;101285.98;107457;1255;61311;-85
2023/03/19 10:50:06;;;;;;;;;;;;;;;15.78;54.17;101285.14;107361;1260;124609;-84
2023/03/19 10:52:34;;;;;;;;;;;;;;;15.80;54.04;101283.58;107645;1254;67455;-84
2023/03/19 10:55:02;;;;;;;;;;;;;;;15.81;53.81;101282.70;107834;1254;72469;-85
2023/03/19 10:57:31;;;;;;;;;;;;;;;15.81;53.69;101280.94;107789;1261;124306;-85
2023/03/19 11:00:03;;;;;;;;;;;;;;;15.82;53.62;101280.59;107407;1256;60155;-82
2023/03/19 11:02:45;;;;;;;;;;;;;;;15.84;53.47;101281.86;107327;1255;126379;-82
2023/03/19 11:05:12;;;;;;;;;;;;;;;15.86;53.30;101280.64;107596;1254;67066;-83
2023/03/19 11:07:39;;;;;;;;;;;;;;;15.88;53.19;101278.90;107649;1254;124369;-82
2023/03/19 11:10:14;;;;;;;;;;;;;;;15.86;53.12;101276.58;107634;1261;59829;-82
2023/03/19 11:12:41;;;;;;;;;;;;;;;15.87;53.14;101268.63;107409;1254;60029;-82
2023/03/19 11:15:15;;;;;;;;;;;;;;;15.87;53.04;101262.95;107371;1254;124282;-82
2023/03/19 11:18:07;;;;;;;;;;;;;;;15.86;52.97;101264.19;107545;1260;67121;-82
2023/03/19 11:20:35;;;;;;;;;;;;;;;15.87;52.94;101262.60;107287;1254;124640;-82
2023/03/19 11:23:11;;;;;;;;;;;;;;;15.86;52.91;101264.00;107015;1254;62329;-82
2023/03/19 11:25:52;;;;;;;;;;;;;;;15.87;52.93;101265.79;107059;1257;124565;-82
2023/03/19 11:28:31;;;;;;;;;;;;;;;15.91;52.89;101262.11;107191;1254;73212;-82
2023/03/19 11:31:09;;;;;;;;;;;;;;;15.94;52.93;101264.98;107436;1254;65804;-82
2023/03/19 11:33:42;;;;;;;;;;;;;;;15.97;52.79;101270.14;107396;1258;124824;-82
2023/03/19 11:36:15;;;;;;;;;;;;;;;15.95;52.71;101269.95;107318;1259;61268;-81
2023/03/19 11:39:02;;;;;;;;;;;;;;;15.94;52.68;101271.17;107268;1254;124191;-82
2023/03/19 11:42:05;;;;;;;;;;;;;;;15.98;52.70;101267.85;107593;1257;73389;-84
2023/03/19 11:44:53;;;;;;;;;;;;;;;16.04;52.72;101262.97;106869;1265;124195;-84
2023/03/19 11:47:33;;;;;;;;;;;;;;;16.09;52.67;101266.02;107532;1257;71878;-86
2023/03/19 11:50:17;;;;;;;;;;;;;;;16.16;52.67;101264.32;107476;1254;124911;-87
2023/03/19 11:52:53;;;;;;;;;;;;;;;16.20;52.59;101262.95;107575;1256;61308;-81
2023/03/19 11:55:27;;;;;;;;;;;;;;;16.24;52.52;101262.64;107637;1256;74449;-81
2023/03/19 11:58:00;;;;;;;;;;;;;;;16.24;52.21;101262.64;107651;1257;124077;-86
2023/03/19 12:00:27;;;;;;;;;;;;;;;16.23;52.18;101259.61;107457;1257;73390;-85
2023/03/19 12:02:55;;;;;;;;;;;;;;;16.25;52.24;101255.20;107065;1261;124375;-86
2023/03/19 12:05:25;;;;;;;;;;;;;;;16.29;52.41;101248.70;107310;1256;61353;-85
2023/03/19 12:08:10;;;;;;;;;;;;;;;16.33;52.31;101246.43;107278;1257;124268;-85
2023/03/19 12:10:57;;;;;;;;;;;;;;;16.34;52.21;101243.77;107429;1256;66169;-85
2023/03/19 12:13:44;;;;;;;;;;;;;;;16.35;52.01;101241.30;107354;1257;73803;-85
2023/03/19 12:16:34;;;;;;;;;;;;;;;16.33;52.03;101233.33;107363;1256;61283;-85
2023/03/19 12:19:10;;;;;;;;;;;;;;;16.32;51.85;101232.80;107375;1257;59847;-85
2023/03/19 12:21:56;;;;;;;;;;;;;;;16.28;51.69;101230.45;107212;1256;124754;-85
2023/03/19 12:24:23;;;;;;;;;;;;;;;16.25;51.83;101227.94;107668;1256;67103;-82
2023/03/19 12:26:56;;;;;;;;;;;;;;;16.26;51.88;101227.23;107162;1256;124125;-83
2023/03/19 12:29:27;;;;;;;;;;;;;;;16.27;52.03;101224.23;107386;1257;59486;-83
2023/03/19 12:32:13;;;;;;;;;;;;;;;16.30;52.08;101223.20;107492;1255;124427;-82
2023/03/19 12:34:50;;;;;;;;;;;;;;;16.32;52.09;101222.16;107466;1257;73712;-81
2023/03/19 12:37:37;;;;;;;;;;;;;;;16.34;52.03;101222.35;107674;1256;65742;-87
2023/03/19 12:40:14;;;;;;;;;;;;;;;16.36;52.18;101218.11;107848;1257;124090;-80
2023/03/19 12:42:43;;;;;;;;;;;;;;;16.41;52.36;101214.27;107795;1257;59332;-80
2023/03/19 12:45:32;;;;;;;;;;;;;;;16.45;52.20;101212.17;107135;1256;124920;-84
2023/03/19 12:48:11;;;;;;;;;;;;;;;16.46;52.03;101210.75;107440;1256;74963;-85
2023/03/19 12:51:04;;;;;;;;;;;;;;;16.45;52.07;101211.29;107375;1256;124841;-85
2023/03/19 12:53:48;;;;;;;;;;;;;;;16.47;52.04;101206.52;107396;1256;71116;-84